createdAt,value
2022-12-11T00:02:22.412Z,7.42
2022-12-11T00:04:50.053Z,7.51
2022-12-11T00:07:17.645Z,7.52
2022-12-11T00:09:45.270Z,7.51
2022-12-11T00:12:12.870Z,7.50
2022-12-11T00:14:40.464Z,7.44
2022-12-11T00:17:08.139Z,7.52
2022-12-11T00:19:35.793Z,7.57
2022-12-11T00:22:03.477Z,7.60
2022-12-11T00:24:31.283Z,7.57
2022-12-11T00:26:59.032Z,7.61
2022-12-11T00:29:26.650Z,7.69
2022-12-11T00:31:54.326Z,7.66
2022-12-11T00:34:22.039Z,7.65
2022-12-11T00:36:49.626Z,7.76
2022-12-11T00:39:17.336Z,7.69
2022-12-11T00:41:45.125Z,7.75
2022-12-11T00:44:12.797Z,7.73
2022-12-11T00:46:40.436Z,7.71
2022-12-11T00:49:08.073Z,7.76
2022-12-11T00:51:35.759Z,7.72
2022-12-11T00:54:03.691Z,7.71
2022-12-11T00:56:34.226Z,7.70
2022-12-11T00:59:01.899Z,7.79
2022-12-11T01:01:29.729Z,7.60
2022-12-11T01:03:57.608Z,7.51
2022-12-11T01:06:28.070Z,7.56
2022-12-11T01:09:15.119Z,7.87
2022-12-11T01:11:43.526Z,7.84
2022-12-11T01:14:11.862Z,7.71
2022-12-11T01:16:39.523Z,7.58
2022-12-11T01:19:07.168Z,7.65
2022-12-11T01:21:34.852Z,7.59
2022-12-11T01:24:02.519Z,7.60
2022-12-11T01:26:30.822Z,7.73
2022-12-11T01:28:58.681Z,7.62
2022-12-11T01:31:26.397Z,7.96
2022-12-11T01:33:55.628Z,7.84
2022-12-11T01:36:23.786Z,7.79
2022-12-11T01:38:51.500Z,7.84
2022-12-11T01:41:19.261Z,7.88
2022-12-11T01:44:00.256Z,7.75
2022-12-11T01:46:29.515Z,7.80
2022-12-11T01:48:57.975Z,7.82
2022-12-11T01:51:26.783Z,7.72
2022-12-11T01:54:02.131Z,7.77
2022-12-11T01:56:33.422Z,7.57
2022-12-11T01:59:07.425Z,7.65
2022-12-11T02:01:47.476Z,7.77
2022-12-11T02:04:16.242Z,7.56
2022-12-11T02:06:50.809Z,7.38
2022-12-11T02:09:32.345Z,7.37
2022-12-11T02:12:04.929Z,7.46
2022-12-11T02:14:45.026Z,7.64
2022-12-11T02:17:16.648Z,7.77
2022-12-11T02:19:57.968Z,7.74
2022-12-11T02:22:43.667Z,7.95
2022-12-11T02:25:25.976Z,7.63
2022-12-11T02:28:16.112Z,7.75
2022-12-11T02:30:50.417Z,7.85
2022-12-11T02:33:26.304Z,7.77
2022-12-11T02:35:55.220Z,7.70
2022-12-11T02:38:31.567Z,7.53
2022-12-11T02:41:01.508Z,7.65
2022-12-11T02:43:32.704Z,7.71
2022-12-11T02:46:01.520Z,7.91
2022-12-11T02:48:30.696Z,7.91
2022-12-11T02:51:00.216Z,8.10
2022-12-11T02:53:31.472Z,7.91
2022-12-11T02:56:08.777Z,7.93
2022-12-11T02:58:43.021Z,7.93
2022-12-11T03:01:10.875Z,8.01
2022-12-11T03:03:38.787Z,7.96
2022-12-11T03:06:06.906Z,8.07
2022-12-11T03:08:34.574Z,8.06
2022-12-11T03:11:02.278Z,8.00
2022-12-11T03:13:30.057Z,8.04
2022-12-11T03:16:07.348Z,7.96
2022-12-11T03:18:44.477Z,7.99
2022-12-11T03:21:12.185Z,8.10
2022-12-11T03:24:15.252Z,8.14
2022-12-11T03:26:55.985Z,8.13
2022-12-11T03:29:30.391Z,8.16
2022-12-11T03:32:23.191Z,8.23
2022-12-11T03:35:10.653Z,8.27
2022-12-11T03:37:41.211Z,8.24
2022-12-11T03:40:17.681Z,8.35
2022-12-11T03:42:49.872Z,8.30
2022-12-11T03:45:19.896Z,8.32
2022-12-11T03:47:48.067Z,8.43
2022-12-11T03:50:18.364Z,8.43
2022-12-11T03:52:47.890Z,8.22
2022-12-11T03:55:18.784Z,8.12
2022-12-11T03:57:46.492Z,7.96
2022-12-11T04:00:18.695Z,7.69
2022-12-11T04:03:11.401Z,7.63
2022-12-11T04:05:48.610Z,7.26
2022-12-11T04:08:18.382Z,7.11
2022-12-11T04:10:46.218Z,6.75
2022-12-11T04:13:14.556Z,6.71
2022-12-11T04:15:42.348Z,6.78
2022-12-11T04:18:29.336Z,6.74
2022-12-11T04:21:15.760Z,6.76
2022-12-11T04:24:02.099Z,6.67
2022-12-11T04:26:29.871Z,6.78
2022-12-11T04:28:57.576Z,6.81
2022-12-11T04:31:25.287Z,6.77
2022-12-11T04:33:53.384Z,6.88
2022-12-11T04:36:21.517Z,6.92
2022-12-11T04:38:49.222Z,6.80
2022-12-11T04:41:17.598Z,6.82
2022-12-11T04:43:45.443Z,6.75
2022-12-11T04:46:20.132Z,6.80
2022-12-11T04:48:52.400Z,6.79
2022-12-11T04:51:23.380Z,6.74
2022-12-11T04:53:51.232Z,6.78
2022-12-11T04:56:19.568Z,6.74
2022-12-11T04:58:48.427Z,6.58
2022-12-11T05:01:18.851Z,6.60
2022-12-11T05:03:47.299Z,6.59
2022-12-11T05:06:15.667Z,6.64
2022-12-11T05:08:44.021Z,6.52
2022-12-11T05:11:14.077Z,6.56
2022-12-11T05:13:42.487Z,6.40
2022-12-11T05:16:12.683Z,6.44
2022-12-11T05:18:40.784Z,6.51
2022-12-11T05:21:11.303Z,6.53
2022-12-11T05:23:39.947Z,6.35
2022-12-11T05:26:11.714Z,6.18
2022-12-11T05:28:40.166Z,6.17
2022-12-11T05:31:14.076Z,6.23
2022-12-11T05:33:42.317Z,6.28
2022-12-11T05:36:16.114Z,6.29
2022-12-11T05:38:44.252Z,6.27
2022-12-11T05:41:14.469Z,6.22
2022-12-11T05:43:42.690Z,6.35
2022-12-11T05:46:17.985Z,6.41
2022-12-11T05:48:48.827Z,6.41
2022-12-11T05:51:17.884Z,6.38
2022-12-11T05:53:47.193Z,6.43
2022-12-11T05:56:35.110Z,6.54
2022-12-11T05:59:04.878Z,6.57
2022-12-11T06:01:36.055Z,6.57
2022-12-11T06:04:05.682Z,6.62
2022-12-11T06:06:34.223Z,6.48
2022-12-11T06:09:02.536Z,6.45
2022-12-11T06:11:32.432Z,6.40
2022-12-11T06:14:02.713Z,6.30
2022-12-11T06:16:30.537Z,6.39
2022-12-11T06:18:58.945Z,6.65
2022-12-11T06:21:31.758Z,6.67
2022-12-11T06:24:02.146Z,6.45
2022-12-11T06:26:30.333Z,6.40
2022-12-11T06:28:58.403Z,6.56
2022-12-11T06:31:26.128Z,6.76
2022-12-11T06:33:54.498Z,6.77
2022-12-11T06:36:23.716Z,6.64
2022-12-11T06:38:52.397Z,6.53
2022-12-11T06:41:20.106Z,6.59
2022-12-11T06:43:47.892Z,6.43
2022-12-11T06:46:18.742Z,6.36
2022-12-11T06:48:47.022Z,6.34
2022-12-11T06:51:20.764Z,6.62
2022-12-11T06:53:53.652Z,6.61
2022-12-11T06:56:22.044Z,6.60
2022-12-11T06:58:49.903Z,6.50
2022-12-11T07:01:23.699Z,6.65
2022-12-11T07:03:55.979Z,6.75
2022-12-11T07:06:25.186Z,6.75
2022-12-11T07:08:53.940Z,6.65
2022-12-11T07:11:22.338Z,6.74
2022-12-11T07:13:50.104Z,6.75
2022-12-11T07:16:18.511Z,6.77
2022-12-11T07:18:50.931Z,6.70
2022-12-11T07:21:20.233Z,6.44
2022-12-11T07:23:49.534Z,6.51
2022-12-11T07:26:19.632Z,6.56
2022-12-11T07:28:47.898Z,6.59
2022-12-11T07:31:24.455Z,6.74
2022-12-11T07:33:56.497Z,6.78
2022-12-11T07:36:25.001Z,6.84
2022-12-11T07:38:53.531Z,6.83
2022-12-11T07:41:22.411Z,6.85
2022-12-11T07:43:54.997Z,6.93
2022-12-11T07:46:25.440Z,6.91
2022-12-11T07:48:53.288Z,7.01
2022-12-11T07:51:29.776Z,6.97
2022-12-11T07:54:02.127Z,6.93
2022-12-11T07:56:30.778Z,7.05
2022-12-11T07:59:04.445Z,6.76
2022-12-11T08:01:36.642Z,6.28
2022-12-11T08:04:10.511Z,6.34
2022-12-11T08:06:40.266Z,6.66
2022-12-11T08:09:14.691Z,6.82
2022-12-11T08:11:48.979Z,7.06
2022-12-11T08:14:16.830Z,7.13
2022-12-11T08:16:44.927Z,7.04
2022-12-11T08:19:13.206Z,6.84
2022-12-11T08:21:41.568Z,6.75
2022-12-11T08:24:10.205Z,6.94
2022-12-11T08:26:37.877Z,6.88
2022-12-11T08:29:05.619Z,7.04
2022-12-11T08:31:33.853Z,7.12
2022-12-11T08:34:01.970Z,7.08
2022-12-11T08:36:29.649Z,6.94
2022-12-11T08:38:57.809Z,7.03
2022-12-11T08:41:28.290Z,7.02
2022-12-11T08:43:57.770Z,6.88
2022-12-11T08:46:27.516Z,6.88
2022-12-11T08:48:55.983Z,7.04
2022-12-11T08:51:26.318Z,7.13
2022-12-11T08:53:58.669Z,6.99
2022-12-11T08:56:28.428Z,7.15
2022-12-11T08:58:56.233Z,6.95
2022-12-11T09:01:26.835Z,6.81
2022-12-11T09:03:56.627Z,7.05
2022-12-11T09:06:27.512Z,7.11
2022-12-11T09:08:56.267Z,7.04
2022-12-11T09:11:28.720Z,6.84
2022-12-11T09:13:56.436Z,6.86
2022-12-11T09:16:25.867Z,6.84
2022-12-11T09:18:55.571Z,6.73
2022-12-11T09:21:29.199Z,6.63
2022-12-11T09:23:59.973Z,6.59
2022-12-11T09:26:29.213Z,6.62
2022-12-11T09:28:57.726Z,6.87
2022-12-11T09:31:31.120Z,6.95
2022-12-11T09:34:02.196Z,7.01
2022-12-11T09:36:30.320Z,7.09
2022-12-11T09:39:02.474Z,7.19
2022-12-11T09:41:36.746Z,6.85
2022-12-11T09:44:27.701Z,6.82
2022-12-11T09:46:56.831Z,6.93
2022-12-11T09:49:32.328Z,6.90
2022-12-11T09:52:34.696Z,6.91
2022-12-11T09:55:24.708Z,7.04
2022-12-11T09:57:52.338Z,7.02
2022-12-11T10:00:32.606Z,6.93
2022-12-11T10:03:09.119Z,7.02
2022-12-11T10:05:52.668Z,7.04
2022-12-11T10:08:39.290Z,6.96
2022-12-11T10:11:33.241Z,7.07
2022-12-11T10:14:17.452Z,7.14
2022-12-11T10:16:57.793Z,7.10
2022-12-11T10:19:29.192Z,7.15
2022-12-11T10:21:59.704Z,7.12
2022-12-11T10:25:09.956Z,7.08
2022-12-11T10:27:33.287Z,7.09
2022-12-11T10:30:23.352Z,6.99
2022-12-11T10:33:23.293Z,7.07
2022-12-11T10:35:53.944Z,7.01
2022-12-11T10:38:45.182Z,7.11
2022-12-11T10:41:24.682Z,7.07
2022-12-11T10:43:54.161Z,7.22
2022-12-11T10:46:28.367Z,7.22
2022-12-11T10:48:58.804Z,7.19
2022-12-11T10:51:35.393Z,7.15
2022-12-11T10:54:38.350Z,6.92
2022-12-11T10:57:09.203Z,6.95
2022-12-11T10:59:49.999Z,6.69
2022-12-11T11:02:26.661Z,6.63
2022-12-11T11:05:04.067Z,6.57
2022-12-11T11:07:35.358Z,6.67
2022-12-11T11:10:05.468Z,6.64
2022-12-11T11:12:48.210Z,6.74
2022-12-11T11:15:22.776Z,6.75
2022-12-11T11:18:01.245Z,6.74
2022-12-11T11:20:34.362Z,6.93
2022-12-11T11:23:14.246Z,6.95
2022-12-11T11:25:56.292Z,6.88
2022-12-11T11:28:34.302Z,7.05
2022-12-11T11:31:16.311Z,6.96
2022-12-11T11:33:57.835Z,7.02
2022-12-11T11:36:28.869Z,6.91
2022-12-11T11:39:02.648Z,6.91
2022-12-11T11:41:44.575Z,6.91
2022-12-11T11:44:19.579Z,6.70
2022-12-11T11:46:59.988Z,6.61
2022-12-11T11:49:46.273Z,6.68
2022-12-11T11:52:29.549Z,6.65
2022-12-11T11:55:39.355Z,6.32
2022-12-11T11:58:17.598Z,6.32
2022-12-11T12:00:45.734Z,6.28
2022-12-11T12:03:16.700Z,6.20
2022-12-11T12:05:50.528Z,6.23
2022-12-11T12:08:53.503Z,6.12
2022-12-11T12:11:49.719Z,6.05
2022-12-11T12:17:56.125Z,5.85
2022-12-11T12:20:35.916Z,5.96
2022-12-11T12:23:06.619Z,5.74
2022-12-11T12:26:02.046Z,5.83
2022-12-11T12:28:41.700Z,5.91
2022-12-11T12:31:30.648Z,5.90
2022-12-11T12:34:31.367Z,5.99
2022-12-11T12:37:08.294Z,5.84
2022-12-11T12:39:38.988Z,5.96
2022-12-11T12:42:11.607Z,5.99
2022-12-11T12:44:52.296Z,5.88
2022-12-11T12:47:20.909Z,5.84
2022-12-11T12:49:54.567Z,5.67
2022-12-11T12:52:31.135Z,5.65
2022-12-11T12:55:14.589Z,5.66
2022-12-11T12:57:55.133Z,5.67
2022-12-11T13:00:28.594Z,5.44
2022-12-11T13:02:56.879Z,5.63
2022-12-11T13:05:30.623Z,5.50
2022-12-11T13:08:02.835Z,5.46
2022-12-11T13:10:30.573Z,5.46
2022-12-11T13:12:59.819Z,5.41
2022-12-11T13:15:43.855Z,5.28
2022-12-11T13:18:35.028Z,4.95
2022-12-11T13:21:24.287Z,5.03
2022-12-11T13:23:52.260Z,4.82
2022-12-11T13:26:45.824Z,4.70
2022-12-11T13:29:53.087Z,4.63
2022-12-11T13:32:30.217Z,4.70
2022-12-11T13:35:00.301Z,4.51
2022-12-11T13:37:36.039Z,4.64
2022-12-11T13:40:08.527Z,4.19
2022-12-11T13:42:50.536Z,4.47
2022-12-11T13:45:23.292Z,4.30
2022-12-11T13:47:51.380Z,4.34
2022-12-11T13:50:26.416Z,4.39
2022-12-11T13:52:59.290Z,4.20
2022-12-11T13:55:33.625Z,4.21
2022-12-11T13:58:01.842Z,4.46
2022-12-11T14:00:32.976Z,4.64
2022-12-11T14:03:07.552Z,4.47
2022-12-11T14:05:35.675Z,4.34
2022-12-11T14:08:11.477Z,4.05
2022-12-11T14:10:40.855Z,4.06
2022-12-11T14:13:22.381Z,4.29
2022-12-11T14:15:50.823Z,4.60
2022-12-11T14:18:23.539Z,4.61
2022-12-11T14:20:56.604Z,4.64
2022-12-11T14:23:27.599Z,4.65
2022-12-11T14:26:03.065Z,4.90
2022-12-11T14:28:41.118Z,4.78
2022-12-11T14:31:12.413Z,4.55
2022-12-11T14:33:48.824Z,4.55
2022-12-11T14:36:18.376Z,4.42
2022-12-11T14:38:53.373Z,4.64
2022-12-11T14:41:32.400Z,4.42
2022-12-11T14:44:04.553Z,4.42
2022-12-11T14:46:42.574Z,4.20
2022-12-11T14:49:21.243Z,4.29
2022-12-11T14:51:50.758Z,4.28
2022-12-11T14:54:30.016Z,4.18
2022-12-11T14:56:59.385Z,4.34
2022-12-11T14:59:32.194Z,4.33
2022-12-11T15:02:03.261Z,4.28
2022-12-11T15:04:33.584Z,3.91
2022-12-11T15:07:01.503Z,4.00
2022-12-11T15:09:38.274Z,4.14
2022-12-11T15:12:13.663Z,3.91
2022-12-11T15:14:52.143Z,4.17
2022-12-11T15:17:21.065Z,4.09
2022-12-11T15:19:51.827Z,4.09
2022-12-11T15:22:26.282Z,4.11
2022-12-11T15:24:55.204Z,4.25
2022-12-11T15:27:36.967Z,4.38
2022-12-11T15:30:20.243Z,4.24
2022-12-11T15:32:48.016Z,4.16
2022-12-11T15:35:25.475Z,3.92
2022-12-11T15:37:55.405Z,4.11
2022-12-11T15:40:24.514Z,4.05
2022-12-11T15:42:52.623Z,4.03
2022-12-11T15:45:23.564Z,3.95
2022-12-11T15:47:52.292Z,4.06
2022-12-11T15:50:25.997Z,3.92
2022-12-11T15:52:55.212Z,3.85
2022-12-11T15:55:26.735Z,3.92
2022-12-11T15:57:58.170Z,4.08
2022-12-11T16:00:28.400Z,3.86
2022-12-11T16:02:57.831Z,3.97
2022-12-11T16:05:27.113Z,3.90
2022-12-11T16:07:59.722Z,3.88
2022-12-11T16:10:28.197Z,3.94
2022-12-11T16:12:59.680Z,3.89
2022-12-11T16:15:27.773Z,3.91
2022-12-11T16:18:10.038Z,3.96
2022-12-11T16:20:40.209Z,3.84
2022-12-11T16:23:09.177Z,3.94
2022-12-11T16:25:39.378Z,4.01
2022-12-11T16:28:08.587Z,4.06
2022-12-11T16:30:37.945Z,4.09
2022-12-11T16:33:12.161Z,4.14
2022-12-11T16:35:42.133Z,4.16
2022-12-11T16:38:14.195Z,4.20
2022-12-11T16:40:42.112Z,4.14
2022-12-11T16:43:11.023Z,4.16
2022-12-11T16:45:38.848Z,4.14
2022-12-11T16:48:06.814Z,4.16
2022-12-11T16:50:36.283Z,4.24
2022-12-11T16:53:04.214Z,4.23
2022-12-11T16:55:31.995Z,4.24
2022-12-11T16:57:59.921Z,4.10
2022-12-11T17:00:27.967Z,4.05
2022-12-11T17:02:55.937Z,3.90
2022-12-11T17:05:25.045Z,3.62
2022-12-11T17:07:53.031Z,3.94
2022-12-11T17:10:21.753Z,3.98
2022-12-11T17:12:49.822Z,3.89
2022-12-11T17:15:17.706Z,3.96
2022-12-11T17:17:45.548Z,4.08
2022-12-11T17:20:13.611Z,4.07
2022-12-11T17:22:41.863Z,4.06
2022-12-11T17:25:10.155Z,3.93
2022-12-11T17:27:38.856Z,3.83
2022-12-11T17:30:08.334Z,3.75
2022-12-11T17:32:36.643Z,3.74
2022-12-11T17:35:04.693Z,3.73
2022-12-11T17:37:32.866Z,3.80
2022-12-11T17:40:00.927Z,3.79
2022-12-11T17:42:28.844Z,3.80
2022-12-11T17:44:57.560Z,3.81
2022-12-11T17:47:25.324Z,3.89
2022-12-11T17:49:53.294Z,3.96
2022-12-11T17:52:21.188Z,3.93
2022-12-11T17:54:49.390Z,4.10
2022-12-11T17:57:17.461Z,3.99
2022-12-11T17:59:45.415Z,4.05
2022-12-11T18:02:13.408Z,4.03
2022-12-11T18:04:41.550Z,4.13
2022-12-11T18:07:09.325Z,4.10
2022-12-11T18:09:40.587Z,4.14
2022-12-11T18:12:09.674Z,4.09
2022-12-11T18:14:37.788Z,4.18
2022-12-11T18:17:06.700Z,4.24
2022-12-11T18:19:34.608Z,4.29
2022-12-11T18:22:02.481Z,4.35
2022-12-11T18:24:31.861Z,4.30
2022-12-11T18:26:59.887Z,4.35
2022-12-11T18:29:27.897Z,4.35
2022-12-11T18:31:55.895Z,4.37
2022-12-11T18:34:23.816Z,4.38
2022-12-11T18:36:51.972Z,4.33
2022-12-11T18:39:19.819Z,4.38
2022-12-11T18:42:03.493Z,4.41
2022-12-11T18:44:35.415Z,4.27
2022-12-11T18:47:03.368Z,4.26
2022-12-11T18:49:31.256Z,4.20
2022-12-11T18:51:59.167Z,4.26
2022-12-11T18:54:26.943Z,4.25
2022-12-11T18:56:54.770Z,4.35
2022-12-11T18:59:22.558Z,4.41
2022-12-11T19:01:50.439Z,4.32
2022-12-11T19:04:18.279Z,4.39
2022-12-11T19:06:46.250Z,4.43
2022-12-11T19:09:14.197Z,4.41
2022-12-11T19:11:42.552Z,4.41
2022-12-11T19:14:11.173Z,4.34
2022-12-11T19:16:42.926Z,4.22
2022-12-11T19:19:21.106Z,4.25
2022-12-11T19:21:50.349Z,4.33
2022-12-11T19:24:21.551Z,4.25
2022-12-11T19:26:49.676Z,4.22
2022-12-11T19:29:32.632Z,4.18
2022-12-11T19:32:02.630Z,4.22
2022-12-11T19:34:30.757Z,4.16
2022-12-11T19:36:58.918Z,4.09
2022-12-11T19:39:26.905Z,4.06
2022-12-11T19:41:54.713Z,4.11
2022-12-11T19:44:22.533Z,4.25
2022-12-11T19:46:51.583Z,4.27
2022-12-11T19:49:20.161Z,4.30
2022-12-11T19:51:48.216Z,4.30
2022-12-11T19:54:18.352Z,4.39
2022-12-11T19:56:46.312Z,4.30
2022-12-11T19:59:17.047Z,4.24
2022-12-11T20:01:48.250Z,4.29
2022-12-11T20:04:18.031Z,4.20
2022-12-11T20:06:47.168Z,4.14
2022-12-11T20:09:15.637Z,4.08
2022-12-11T20:11:45.008Z,4.24
2022-12-11T20:14:24.008Z,4.22
2022-12-11T20:17:10.537Z,4.26
2022-12-11T20:19:40.328Z,4.18
2022-12-11T20:22:09.394Z,4.32
2022-12-11T20:24:38.066Z,4.19
2022-12-11T20:27:06.104Z,4.22
2022-12-11T20:29:34.424Z,4.26
2022-12-11T20:32:02.503Z,4.21
2022-12-11T20:34:30.374Z,4.27
2022-12-11T20:36:58.230Z,4.24
2022-12-11T20:39:29.049Z,4.34
2022-12-11T20:41:59.708Z,4.29
2022-12-11T20:44:27.615Z,4.33
2022-12-11T20:46:56.594Z,4.29
2022-12-11T20:49:24.739Z,4.29
2022-12-11T20:51:52.986Z,4.37
2022-12-11T20:54:21.032Z,4.37
2022-12-11T20:56:49.020Z,4.26
2022-12-11T20:59:18.395Z,4.25
2022-12-11T21:01:46.542Z,4.33
2022-12-11T21:04:14.524Z,4.23
2022-12-11T21:06:42.566Z,4.19
2022-12-11T21:09:17.973Z,4.12
2022-12-11T21:11:46.169Z,4.11
2022-12-11T21:14:15.427Z,4.09
2022-12-11T21:20:21.400Z,4.31
2022-12-11T21:22:49.102Z,4.24
2022-12-11T21:25:16.900Z,4.43
2022-12-11T21:27:44.623Z,4.35
2022-12-11T21:30:12.959Z,4.28
2022-12-11T21:32:42.661Z,4.21
2022-12-11T21:35:11.241Z,4.17
2022-12-11T21:37:41.917Z,4.20
2022-12-11T21:40:10.160Z,4.07
2022-12-11T21:42:37.981Z,4.01
2022-12-11T21:47:54.059Z,4.02
2022-12-11T21:50:22.461Z,4.08
2022-12-11T21:52:50.786Z,4.09
2022-12-11T21:55:19.457Z,4.12
2022-12-11T21:57:47.134Z,4.11
2022-12-11T22:00:16.108Z,3.98
2022-12-11T22:02:43.977Z,3.95
2022-12-11T22:05:11.840Z,3.84
2022-12-11T22:07:39.826Z,3.87
2022-12-11T22:10:08.018Z,3.83
2022-12-11T22:12:35.758Z,3.55
2022-12-11T22:15:03.954Z,3.63
2022-12-11T22:17:32.361Z,3.58
2022-12-11T22:20:00.141Z,3.49
2022-12-11T22:22:27.957Z,3.48
2022-12-11T22:24:55.687Z,3.58
2022-12-11T22:27:24.011Z,3.61
2022-12-11T22:29:51.880Z,3.66
2022-12-11T22:32:19.574Z,3.73
2022-12-11T22:34:47.182Z,3.66
2022-12-11T22:37:14.901Z,3.71
2022-12-11T22:39:42.558Z,3.63
2022-12-11T22:42:10.302Z,3.55
2022-12-11T22:44:38.053Z,3.64
2022-12-11T22:47:05.724Z,3.69
2022-12-11T22:49:33.695Z,3.83
2022-12-11T22:52:01.444Z,3.81
2022-12-11T22:54:29.362Z,3.94
2022-12-11T22:56:59.205Z,3.99
2022-12-11T22:59:26.972Z,3.92
2022-12-11T23:01:54.673Z,3.98
2022-12-11T23:04:22.384Z,3.99
2022-12-11T23:06:50.206Z,3.94
2022-12-11T23:09:18.201Z,3.90
2022-12-11T23:11:45.901Z,3.73
2022-12-11T23:14:17.796Z,3.72
2022-12-11T23:16:45.670Z,3.63
2022-12-11T23:19:13.454Z,3.55
2022-12-11T23:21:41.566Z,3.46
2022-12-11T23:24:10.317Z,3.43
2022-12-11T23:26:38.156Z,3.42
2022-12-11T23:29:06.824Z,3.25
2022-12-11T23:31:34.873Z,3.16
2022-12-11T23:34:02.645Z,3.09
2022-12-11T23:36:30.780Z,2.91
2022-12-11T23:38:58.552Z,2.83
2022-12-11T23:41:26.286Z,2.56
2022-12-11T23:43:53.970Z,2.53
2022-12-11T23:46:24.041Z,2.51
2022-12-11T23:48:53.212Z,2.46
2022-12-11T23:51:23.499Z,2.50
2022-12-11T23:53:51.877Z,2.46
2022-12-11T23:56:22.810Z,2.28
2022-12-11T23:58:51.305Z,2.10
